Time;durP1;ratioP1;P1;durP2;ratioP2;P2;SDS_P1;SDS_P2;PMS_P1;PMS_P2;Temp;Humidity;BMP_temperature;BMP_pressure;BME280_temperature;BME280_humidity;BME280_pressure;Samples;Min_cycle;Max_cycle;Signal;HPM_P1;HPM_P2
2023/09/28 00:00:35;;;;;;;3.65;3.17;;;;;;;-142.91;100.00;56616.03;5033269;28;20231;-66
2023/09/28 00:02:46;;;;;;;5.97;3.40;;;;;;;-142.91;100.00;56616.03;5043538;28;20200;-67
2023/09/28 00:08:00;;;;;;;4.45;3.42;;;;;;;-142.91;100.00;56616.03;5042092;28;20210;-67
2023/09/28 00:10:26;;;;;;;7.82;3.60;;;;;;;-142.91;100.00;56616.03;5042298;28;20676;-67
2023/09/28 00:12:54;;;;;;;7.68;3.55;;;;;;;-142.91;100.00;56616.03;5045933;28;20207;-66
2023/09/28 00:15:24;;;;;;;7.18;3.50;;;;;;;-142.91;100.00;56616.03;5045757;28;20272;-68
2023/09/28 00:17:51;;;;;;;4.63;3.60;;;;;;;-142.91;100.00;56616.03;5046398;28;20284;-68
2023/09/28 00:20:37;;;;;;;10.15;3.33;;;;;;;-142.91;100.00;56616.03;5045879;28;20207;-66
2023/09/28 00:23:03;;;;;;;6.15;3.47;;;;;;;-142.91;100.00;56616.03;5045029;28;20279;-68
2023/09/28 00:31:01;;;;;;;13.15;4.00;;;;;;;-142.91;100.00;56616.03;5046214;28;20257;-67
2023/09/28 00:33:27;;;;;;;10.93;3.35;;;;;;;-142.91;100.00;56616.03;5046640;28;20757;-68
2023/09/28 00:35:53;;;;;;;13.38;3.63;;;;;;;-142.91;100.00;56616.03;5046904;28;20207;-67
2023/09/28 00:38:19;;;;;;;6.45;3.85;;;;;;;-142.91;100.00;56616.03;5046964;28;20679;-67
2023/09/28 00:40:46;;;;;;;9.75;3.33;;;;;;;-142.91;100.00;56616.03;5046816;28;20234;-67
2023/09/28 00:45:57;;;;;;;8.30;3.40;;;;;;;-142.91;100.00;56616.03;5046822;28;20328;-66
2023/09/28 00:48:24;;;;;;;5.00;3.83;;;;;;;23.33;100.00;56616.03;5047226;28;20219;-66
2023/09/28 00:50:51;;;;;;;14.00;3.00;;;;;;;-142.91;100.00;56616.03;5047109;28;20300;-66
2023/09/28 00:53:20;;;;;;;6.40;3.92;;;;;;;-142.91;100.00;56616.03;5047448;28;20235;-66
2023/09/28 00:56:07;;;;;;;4.35;3.92;;;;;;;-142.91;100.00;56616.03;5047074;28;20199;-67
2023/09/28 00:58:37;;;;;;;9.73;3.22;;;;;;;-142.91;100.00;56616.03;5046754;28;20221;-65
2023/09/28 01:04:09;;;;;;;9.68;4.15;;;;;;;-142.91;100.00;56616.03;5046912;28;20225;-66
2023/09/28 01:06:35;;;;;;;5.60;3.47;;;;;;;-142.91;100.00;56616.03;5047047;28;20309;-66
2023/09/28 01:09:06;;;;;;;7.35;3.80;;;;;;;-142.91;100.00;56616.03;5047069;28;20203;-67
2023/09/28 01:11:33;;;;;;;11.18;3.60;;;;;;;-142.91;100.00;56616.03;5046506;28;20195;-66
2023/09/28 01:14:02;;;;;;;6.28;4.95;;;;;;;-142.91;100.00;56616.03;5046329;28;20202;-67
2023/09/28 01:16:27;;;;;;;6.45;5.82;;;;;;;-142.91;100.00;56616.03;5045867;28;20321;-66
2023/09/28 01:18:54;;;;;;;7.22;4.80;;;;;;;-142.91;100.00;56616.03;5044697;28;20692;-66
2023/09/28 01:21:21;;;;;;;7.25;4.70;;;;;;;-142.91;100.00;56616.03;5042895;28;20276;-66
2023/09/28 01:23:49;;;;;;;13.70;4.55;;;;;;;-142.91;100.00;56616.03;5046695;28;20210;-67
2023/09/28 01:26:15;;;;;;;13.13;5.70;;;;;;;-142.91;100.00;56616.03;5045343;28;20324;-66
2023/09/28 01:28:41;;;;;;;7.82;4.10;;;;;;;-142.91;100.00;56616.03;5046203;28;20285;-66
2023/09/28 01:31:07;;;;;;;5.18;4.03;;;;;;;-142.91;100.00;56616.03;5045922;28;20219;-66
2023/09/28 01:33:52;;;;;;;8.38;4.22;;;;;;;-142.91;100.00;56616.03;5046286;28;20348;-65
2023/09/28 01:36:18;;;;;;;5.47;3.95;;;;;;;-142.91;100.00;56616.03;5046672;28;20207;-66
2023/09/28 01:39:07;;;;;;;7.38;4.25;;;;;;;-142.91;100.00;56616.03;5045885;28;20658;-67
2023/09/28 01:41:35;;;;;;;8.82;5.90;;;;;;;-142.91;100.00;56616.03;5045966;28;20763;-66
2023/09/28 01:44:03;;;;;;;14.77;6.47;;;;;;;-142.91;100.00;56616.03;5036163;28;20654;-68
2023/09/28 01:46:28;;;;;;;9.25;5.75;;;;;;;-142.91;100.00;56616.03;5046130;28;20207;-68
2023/09/28 01:48:55;;;;;;;7.70;4.25;;;;;;;-142.91;100.00;56616.03;5045951;28;20195;-69
2023/09/28 01:54:06;;;;;;;11.10;4.47;;;;;;;-142.91;100.00;56616.03;5045626;28;20213;-66
2023/09/28 01:56:32;;;;;;;8.32;4.20;;;;;;;-142.91;100.00;56616.03;5045502;28;20735;-66
2023/09/28 01:59:00;;;;;;;4.97;4.13;;;;;;;-142.91;100.00;56616.03;5045352;28;20246;-66
2023/09/28 02:01:44;;;;;;;7.68;4.30;;;;;;;-142.91;100.00;56616.03;5044450;28;20252;-67
2023/09/28 02:04:11;;;;;;;7.03;4.65;;;;;;;-142.91;100.00;56616.03;5043681;28;20604;-66
2023/09/28 02:06:55;;;;;;;4.68;4.28;;;;;;;-142.91;100.00;56616.03;5044286;28;20729;-66
2023/09/28 02:09:40;;;;;;;6.40;4.45;;;;;;;-142.91;100.00;56616.03;5044432;28;20223;-67
2023/09/28 02:12:06;;;;;;;8.48;4.10;;;;;;;-142.91;100.00;56616.03;5044116;28;20256;-68
2023/09/28 02:14:34;;;;;;;8.93;4.07;;;;;;;-142.91;100.00;56616.03;5043286;28;20290;-67
2023/09/28 02:19:45;;;;;;;4.93;3.90;;;;;;;-142.91;100.00;56616.03;5032179;28;20749;-67
2023/09/28 02:22:11;;;;;;;6.55;3.90;;;;;;;-142.91;100.00;56616.03;5042647;28;20672;-67
2023/09/28 02:24:38;;;;;;;3.78;3.47;;;;;;;-142.91;100.00;56616.03;5044090;28;20253;-66
2023/09/28 02:27:04;;;;;;;9.55;3.97;;;;;;;-142.91;100.00;56616.03;5043112;28;20226;-67
2023/09/28 02:29:30;;;;;;;8.68;3.70;;;;;;;-142.91;100.00;56616.03;5043661;28;20248;-65
2023/09/28 02:31:57;;;;;;;4.45;4.07;;;;;;;-142.91;100.00;56616.03;5044762;28;20218;-66
2023/09/28 02:34:24;;;;;;;14.93;4.75;;;;;;;-142.91;100.00;56616.03;5044797;28;20622;-66
2023/09/28 02:36:50;;;;;;;11.80;4.47;;;;;;;-142.91;100.00;56616.03;5044403;28;20754;-67
2023/09/28 02:39:17;;;;;;;7.22;5.70;;;;;;;-142.91;100.00;56616.03;5044853;28;20235;-66
2023/09/28 02:41:43;;;;;;;10.13;3.75;;;;;;;-142.91;100.00;56616.03;5043299;28;20700;-67
2023/09/28 02:44:09;;;;;;;4.20;3.80;;;;;;;-142.91;100.00;56616.03;5045037;28;20199;-64
2023/09/28 02:46:35;;;;;;;7.43;4.28;;;;;;;-142.91;100.00;56616.03;5044010;28;20639;-65
2023/09/28 02:49:22;;;;;;;4.55;4.25;;;;;;;-142.91;100.00;56616.03;5043739;28;20230;-66
2023/09/28 02:51:50;;;;;;;5.18;4.03;;;;;;;-142.91;100.00;56616.03;5045358;28;20199;-66
2023/09/28 02:54:16;;;;;;;5.18;4.53;;;;;;;-142.91;100.00;56616.03;5044309;28;20207;-66
2023/09/28 02:56:42;;;;;;;6.95;4.03;;;;;;;-142.91;100.00;56616.03;5044936;28;20203;-66
2023/09/28 02:59:09;;;;;;;4.57;4.18;;;;;;;-142.91;100.00;56616.03;5043940;28;20226;-67
2023/09/28 03:04:20;;;;;;;10.43;4.18;;;;;;;-142.91;100.00;56616.03;5045366;28;20206;-65
2023/09/28 03:06:52;;;;;;;10.18;4.15;;;;;;;-142.91;100.00;56616.03;5045765;28;20639;-64
2023/09/28 03:09:17;;;;;;;5.00;4.20;;;;;;;-142.91;100.00;56616.03;5045221;28;20294;-64
2023/09/28 03:11:44;;;;;;;5.82;4.63;;;;;;;-142.91;100.00;56616.03;5045417;28;20207;-65
2023/09/28 03:14:10;;;;;;;12.48;4.28;;;;;;;-142.91;100.00;56616.03;5044464;28;20641;-67
2023/09/28 03:16:37;;;;;;;6.57;4.57;;;;;;;-142.91;100.00;56616.03;5045499;28;20253;-65
2023/09/28 03:19:03;;;;;;;9.20;4.85;;;;;;;-142.91;100.00;56616.03;5044680;28;20234;-65
2023/09/28 03:24:15;;;;;;;9.85;5.45;;;;;;;-142.91;100.00;56616.03;5044271;28;21083;-65
2023/09/28 03:26:41;;;;;;;8.73;5.32;;;;;;;-142.91;100.00;56616.03;5043638;28;20235;-65
2023/09/28 03:34:55;;;;;;;9.75;4.95;;;;;;;-142.91;100.00;56616.03;5044093;28;20209;-66
2023/09/28 03:37:22;;;;;;;10.15;5.15;;;;;;;-142.91;100.00;56616.03;5044992;28;20639;-65
2023/09/28 03:40:10;;;;;;;8.48;5.07;;;;;;;-142.91;100.00;56616.03;5044301;28;20222;-65
2023/09/28 03:42:38;;;;;;;6.93;4.90;;;;;;;-142.91;100.00;56616.03;5044712;28;20298;-66
2023/09/28 03:45:08;;;;;;;8.40;5.45;;;;;;;-142.91;100.00;56616.03;5044962;28;20191;-65
2023/09/28 03:50:20;;;;;;;10.02;4.93;;;;;;;-142.91;100.00;56616.03;5048558;28;20206;-65
2023/09/28 03:52:47;;;;;;;11.00;5.45;;;;;;;-142.91;100.00;56616.03;5048442;28;20206;-66
2023/09/28 03:55:17;;;;;;;6.78;5.63;;;;;;;-142.91;100.00;56616.03;5048904;28;20256;-65
2023/09/28 04:00:30;;;;;;;30.40;15.00;;;;;;;-142.91;100.00;56616.03;5048500;28;20664;-65
2023/09/28 04:02:56;;;;;;;14.93;8.00;;;;;;;-142.91;100.00;56616.03;5047256;28;20199;-65
2023/09/28 04:05:24;;;;;;;11.88;6.55;;;;;;;-142.91;100.00;56616.03;5047565;28;20223;-65
2023/09/28 04:07:51;;;;;;;15.25;5.60;;;;;;;-142.91;100.00;56616.03;5046828;28;20199;-65
2023/09/28 04:10:20;;;;;;;16.33;6.38;;;;;;;-142.91;100.00;56616.03;5046658;28;20567;-66
2023/09/28 04:12:47;;;;;;;14.13;6.13;;;;;;;-142.91;100.00;56616.03;5046571;28;20211;-66
2023/09/28 04:15:14;;;;;;;11.32;5.88;;;;;;;-142.91;100.00;56616.03;5045844;28;20215;-67
2023/09/28 04:17:40;;;;;;;8.77;6.78;;;;;;;-142.91;100.00;56616.03;5046222;28;20681;-66
2023/09/28 04:20:09;;;;;;;14.70;6.10;;;;;;;-142.91;100.00;56616.03;5046243;28;20553;-66
2023/09/28 04:22:54;;;;;;;17.95;7.68;;;;;;;-142.91;100.00;56616.03;5046672;28;20281;-66
2023/09/28 04:25:41;;;;;;;32.17;17.73;;;;;;;-142.91;100.00;56616.03;5045597;28;20260;-65
2023/09/28 04:28:07;;;;;;;34.92;15.20;;;;;;;-142.91;100.00;56616.03;5047006;28;20307;-67
2023/09/28 04:30:36;;;;;;;20.02;12.77;;;;;;;-142.91;100.00;56616.03;5047614;28;20635;-65
2023/09/28 04:33:21;;;;;;;17.17;7.05;;;;;;;-142.91;100.00;56616.03;5046648;28;20874;-65
2023/09/28 04:35:47;;;;;;;7.85;6.05;;;;;;;-142.91;100.00;56616.03;5046699;28;20214;-65
2023/09/28 04:38:33;;;;;;;8.88;6.00;;;;;;;-142.91;100.00;56616.03;5048015;28;20194;-67
2023/09/28 04:41:02;;;;;;;9.52;6.40;;;;;;;-142.91;100.00;56616.03;5047223;28;20703;-66
2023/09/28 04:43:29;;;;;;;14.93;6.10;;;;;;;-142.91;100.00;56616.03;5046931;28;20207;-65
2023/09/28 04:48:40;;;;;;;21.25;13.23;;;;;;;-142.91;100.00;56616.03;5047674;28;20214;-67
2023/09/28 04:51:06;;;;;;;55.58;28.13;;;;;;;-142.91;100.00;56616.03;5047563;28;20207;-67
2023/09/28 04:53:52;;;;;;;19.85;13.27;;;;;;;-142.91;100.00;56616.03;5047852;28;20235;-66
2023/09/28 04:56:20;;;;;;;17.02;7.78;;;;;;;-142.91;100.00;56616.03;5046528;28;20645;-67
2023/09/28 05:01:50;;;;;;;9.98;6.60;;;;;;;-142.91;100.00;56616.03;5046560;28;20245;-66
2023/09/28 05:04:16;;;;;;;12.85;7.78;;;;;;;-142.91;100.00;56616.03;5046662;28;20207;-66
2023/09/28 05:07:01;;;;;;;16.05;7.00;;;;;;;-142.91;100.00;56616.03;5046356;28;20199;-67
2023/09/28 05:09:47;;;;;;;11.00;6.90;;;;;;;-142.91;100.00;56616.03;5047240;28;20225;-66
2023/09/28 05:12:15;;;;;;;14.23;7.93;;;;;;;-142.91;100.00;56616.03;5045955;28;20567;-67
2023/09/28 05:14:42;;;;;;;21.50;8.10;;;;;;;-142.91;100.00;56616.03;5045510;28;20260;-66
2023/09/28 05:17:08;;;;;;;15.10;6.57;;;;;;;-142.91;100.00;56616.03;5046556;28;20246;-67
2023/09/28 05:19:35;;;;;;;13.43;6.30;;;;;;;-142.91;100.00;56616.03;5047514;28;20222;-67
2023/09/28 05:22:02;;;;;;;7.20;6.07;;;;;;;-142.91;100.00;56616.03;5047016;28;20206;-65
2023/09/28 05:24:29;;;;;;;9.27;4.85;;;;;;;-142.91;100.00;56616.03;5046067;28;20302;-67
2023/09/28 05:26:56;;;;;;;9.15;5.18;;;;;;;-142.91;100.00;56616.03;5046590;28;20624;-68
2023/09/28 05:29:25;;;;;;;10.13;5.32;;;;;;;-142.91;100.00;56616.03;5047016;28;20581;-66
2023/09/28 05:31:51;;;;;;;13.80;4.97;;;;;;;-142.91;100.00;56616.03;5046397;28;20222;-68
2023/09/28 05:34:18;;;;;;;9.10;4.30;;;;;;;-142.91;100.00;56616.03;5046531;28;20203;-65
2023/09/28 05:36:45;;;;;;;9.13;4.40;;;;;;;-142.91;100.00;56616.03;5046729;28;20214;-65
2023/09/28 05:39:12;;;;;;;5.57;4.55;;;;;;;-142.91;100.00;56616.03;5047047;28;20215;-67
2023/09/28 05:41:39;;;;;;;7.07;4.13;;;;;;;-142.91;100.00;56616.03;5045380;28;20671;-65
2023/09/28 05:44:07;;;;;;;6.57;4.38;;;;;;;-142.91;100.00;56616.03;5046496;28;20203;-66
2023/09/28 05:46:36;;;;;;;4.57;4.18;;;;;;;-142.91;100.00;56616.03;5046200;28;20234;-66
2023/09/28 05:49:03;;;;;;;9.73;4.75;;;;;;;-142.91;100.00;56616.03;5046087;28;20668;-67
2023/09/28 05:51:29;;;;;;;10.77;4.40;;;;;;;-142.91;100.00;56616.03;5046211;28;20202;-66
2023/09/28 05:54:14;;;;;;;8.57;6.18;;;;;;;-142.91;100.00;56616.03;5046143;28;20222;-65
2023/09/28 05:56:41;;;;;;;7.53;4.40;;;;;;;-142.91;100.00;56616.03;5046504;28;20199;-66
2023/09/28 05:59:08;;;;;;;8.85;4.90;;;;;;;-142.91;100.00;56616.03;5046835;28;20318;-66
2023/09/28 06:01:36;;;;;;;8.75;3.88;;;;;;;-142.91;100.00;56616.03;5046257;28;20199;-66
2023/09/28 06:04:04;;;;;;;10.80;4.85;;;;;;;-142.91;100.00;56616.03;5045415;28;20326;-67
2023/09/28 06:06:31;;;;;;;13.93;5.50;;;;;;;-142.91;100.00;56616.03;5045127;28;20211;-68
2023/09/28 06:08:58;;;;;;;12.02;5.15;;;;;;;-142.91;100.00;56616.03;5042259;28;20218;-67
2023/09/28 06:11:25;;;;;;;10.05;3.83;;;;;;;-142.91;100.00;56616.03;5044170;28;20664;-67
2023/09/28 06:13:51;;;;;;;11.00;4.03;;;;;;;-142.91;100.00;56616.03;5044260;28;20229;-67
2023/09/28 06:16:18;;;;;;;7.28;4.75;;;;;;;-142.91;100.00;56616.03;5044007;28;20906;-67
2023/09/28 06:18:46;;;;;;;15.38;3.97;;;;;;;-142.91;100.00;56616.03;5043918;28;20292;-67
2023/09/28 06:24:16;;;;;;;7.95;4.03;;;;;;;-142.91;100.00;56616.03;5043605;28;20217;-67
2023/09/28 06:26:42;;;;;;;11.93;4.68;;;;;;;-142.91;100.00;56616.03;5044304;28;20242;-67
2023/09/28 06:29:28;;;;;;;10.40;4.80;;;;;;;-142.91;100.00;56616.03;5045505;28;20206;-68
2023/09/28 06:32:13;;;;;;;5.15;3.20;;;;;;;-142.91;100.00;56616.03;5045742;28;20222;-66
2023/09/28 06:35:00;;;;;;;13.70;4.30;;;;;;;-142.91;100.00;56616.03;5045390;28;20260;-67
2023/09/28 06:37:27;;;;;;;12.57;4.93;;;;;;;-142.91;100.00;56616.03;5046194;28;20212;-66
2023/09/28 06:39:55;;;;;;;13.65;3.63;;;;;;;-142.91;100.00;56616.03;5044951;28;20242;-68
2023/09/28 06:42:21;;;;;;;5.38;3.08;;;;;;;-142.91;100.00;56616.03;5045181;28;20205;-67
2023/09/28 06:44:48;;;;;;;5.95;3.30;;;;;;;-142.91;100.00;56616.03;5044849;28;20215;-66
2023/09/28 06:47:15;;;;;;;9.10;4.70;;;;;;;-142.91;100.00;56616.03;5045833;28;20199;-67
2023/09/28 06:49:43;;;;;;;14.50;3.97;;;;;;;-142.91;100.00;56616.03;5045256;28;20252;-66
2023/09/28 06:52:10;;;;;;;7.45;3.88;;;;;;;-142.91;100.00;56616.03;5045597;28;20206;-68
2023/09/28 06:54:38;;;;;;;11.50;4.10;;;;;;;-142.91;100.00;56616.03;5045233;28;20226;-67
2023/09/28 06:57:04;;;;;;;9.18;4.10;;;;;;;-142.91;100.00;56616.03;5044848;28;20217;-66
2023/09/28 06:59:31;;;;;;;4.82;3.15;;;;;;;-142.91;100.00;56616.03;5044789;28;20250;-67
2023/09/28 07:01:58;;;;;;;7.78;3.92;;;;;;;-142.91;100.00;56616.03;5045622;28;20203;-68
2023/09/28 07:04:24;;;;;;;4.97;3.28;;;;;;;-142.91;100.00;56616.03;5045064;28;20249;-66
2023/09/28 07:06:52;;;;;;;6.38;4.13;;;;;;;-142.91;100.00;56616.03;5044515;28;20213;-67
2023/09/28 07:09:20;;;;;;;12.68;3.97;;;;;;;-142.91;100.00;56616.03;5044862;28;20210;-67
2023/09/28 07:12:06;;;;;;;9.25;4.13;;;;;;;-142.91;100.00;56616.03;5044627;28;20215;-67
2023/09/28 07:17:16;;;;;;;10.05;4.18;;;;;;;-142.91;100.00;56616.03;5043791;28;20260;-66
2023/09/28 07:22:28;;;;;;;3.60;2.78;;;;;;;-142.91;100.00;56616.03;5044912;28;20202;-66
2023/09/28 07:27:58;;;;;;;5.40;3.67;;;;;;;-142.91;100.00;56616.03;5044414;28;20229;-68
2023/09/28 07:30:25;;;;;;;8.48;4.03;;;;;;;-142.91;100.00;56616.03;5044161;28;20242;-67
2023/09/28 07:32:52;;;;;;;4.22;3.03;;;;;;;-142.91;100.00;56616.03;5044877;28;20253;-66
2023/09/28 07:35:19;;;;;;;5.97;3.33;;;;;;;-142.91;100.00;56616.03;5044653;28;20632;-67
2023/09/28 07:37:47;;;;;;;4.93;3.30;;;;;;;-142.91;100.00;56616.03;5044007;28;20278;-66
2023/09/28 07:40:17;;;;;;;8.52;3.40;;;;;;;-142.91;100.00;56616.03;5044787;28;20219;-65
2023/09/28 07:42:45;;;;;;;5.93;2.75;;;;;;;-142.91;100.00;56616.03;5043469;28;20202;-68
2023/09/28 07:45:12;;;;;;;5.40;3.42;;;;;;;-142.91;100.00;56616.03;5045033;28;20199;-67
2023/09/28 07:47:39;;;;;;;7.25;3.58;;;;;;;-142.91;100.00;56616.03;5044309;28;20199;-66
2023/09/28 07:50:25;;;;;;;4.82;3.38;;;;;;;-142.91;100.00;56616.03;5044833;28;20229;-67
2023/09/28 07:52:53;;;;;;;5.00;3.00;;;;;;;-142.91;100.00;56616.03;5044500;28;20210;-66
2023/09/28 07:55:19;;;;;;;14.05;3.40;;;;;;;-142.91;100.00;56616.03;5043745;28;20261;-65
2023/09/28 07:57:47;;;;;;;10.80;3.60;;;;;;;-142.91;100.00;56616.03;5043929;28;20211;-66
2023/09/28 08:00:17;;;;;;;5.13;3.17;;;;;;;-142.91;100.00;56616.03;5044383;28;20223;-65
2023/09/28 08:02:44;;;;;;;5.70;3.42;;;;;;;-142.91;100.00;56616.03;5044121;28;20203;-66
2023/09/28 08:05:12;;;;;;;4.90;3.38;;;;;;;-142.91;100.00;56616.03;5028603;28;20210;-67
2023/09/28 08:07:39;;;;;;;12.73;4.65;;;;;;;-142.91;100.00;56616.03;5040610;28;20289;-64
2023/09/28 08:10:09;;;;;;;8.50;3.67;;;;;;;-142.91;100.00;56616.03;5040763;28;20199;-67
2023/09/28 08:13:13;;;;;;;6.10;3.88;;;;;;;-142.91;100.00;56616.03;5042915;28;20280;-65
2023/09/28 08:15:40;;;;;;;12.88;3.25;;;;;;;-142.91;100.00;56616.03;5042110;28;20206;-66
2023/09/28 08:18:08;;;;;;;12.52;3.83;;;;;;;-142.91;100.00;56616.03;5042483;28;20196;-68
2023/09/28 08:20:34;;;;;;;7.65;3.58;;;;;;;-142.91;100.00;56616.03;5042317;28;20597;-66
2023/09/28 08:23:01;;;;;;;13.60;3.70;;;;;;;-142.91;100.00;56616.03;5042775;28;20245;-67
2023/09/28 08:25:48;;;;;;;6.68;3.53;;;;;;;-142.91;100.00;56616.03;5043517;28;20656;-67
2023/09/28 08:28:15;;;;;;;13.57;3.85;;;;;;;-142.91;100.00;56616.03;5041272;28;20241;-62
2023/09/28 08:31:03;;;;;;;6.95;3.65;;;;;;;-142.91;100.00;56616.03;5040031;28;20310;-63
2023/09/28 08:33:30;;;;;;;5.95;3.78;;;;;;;-142.91;100.00;56616.03;5042515;28;20576;-67
2023/09/28 08:38:41;;;;;;;7.95;4.50;;;;;;;-142.91;100.00;56616.03;5046066;28;20261;-66
2023/09/28 08:41:10;;;;;;;11.27;3.35;;;;;;;-142.91;100.00;56616.03;5034603;28;20227;-66
2023/09/28 08:43:42;;;;;;;5.22;3.22;;;;;;;-142.91;100.00;56616.03;5035256;28;20688;-67
2023/09/28 08:46:12;;;;;;;10.13;3.53;;;;;;;-142.91;100.00;56616.03;5048446;28;20221;-66
2023/09/28 08:51:45;;;;;;;5.78;3.20;;;;;;;-142.91;100.00;56616.03;5047961;28;20275;-65
2023/09/28 08:54:13;;;;;;;11.95;3.05;;;;;;;-142.91;100.00;56616.03;5046020;28;20303;-65
2023/09/28 08:56:42;;;;;;;7.50;3.08;;;;;;;-142.91;100.00;56616.03;5046277;28;20625;-64
2023/09/28 08:59:10;;;;;;;5.85;2.88;;;;;;;-142.91;100.00;56616.03;5046534;28;20203;-65
2023/09/28 09:01:39;;;;;;;10.02;3.42;;;;;;;-142.91;100.00;56616.03;5046708;28;20785;-66
2023/09/28 09:04:07;;;;;;;8.40;3.38;;;;;;;-142.91;100.00;56616.03;5043869;28;20265;-64
2023/09/28 09:06:34;;;;;;;9.88;3.35;;;;;;;-142.91;100.00;56616.03;5038407;28;20261;-64
2023/09/28 09:09:02;;;;;;;8.32;3.17;;;;;;;-142.91;100.00;56616.03;5046201;28;20253;-65
2023/09/28 09:11:31;;;;;;;11.70;3.08;;;;;;;-142.91;100.00;56616.03;5046176;28;20202;-66
2023/09/28 09:16:43;;;;;;;8.88;3.67;;;;;;;-142.91;100.00;56616.03;5044920;28;20795;-68
2023/09/28 09:19:14;;;;;;;4.20;2.92;;;;;;;-142.91;100.00;56616.03;5044956;28;20624;-70
2023/09/28 09:21:43;;;;;;;9.60;3.35;;;;;;;-142.91;100.00;56616.03;5045098;28;20704;-66
2023/09/28 09:24:13;;;;;;;4.82;3.17;;;;;;;-142.91;100.00;56616.03;5044700;28;20209;-67
2023/09/28 09:26:40;;;;;;;9.60;3.30;;;;;;;-142.91;100.00;56616.03;5044873;28;20235;-65
2023/09/28 09:29:09;;;;;;;6.55;3.05;;;;;;;-142.91;100.00;56616.03;5046729;28;20231;-64
2023/09/28 09:34:40;;;;;;;3.78;3.28;;;;;;;-142.91;100.00;56616.03;5046599;28;20210;-63
2023/09/28 09:37:12;;;;;;;5.47;3.28;;;;;;;-142.91;100.00;56616.03;5046804;28;20225;-64
2023/09/28 09:42:27;;;;;;;8.18;3.47;;;;;;;-142.91;100.00;56616.03;5046953;28;20209;-65
2023/09/28 09:44:56;;;;;;;3.65;2.80;;;;;;;-142.91;100.00;56616.03;5045413;28;20218;-66
2023/09/28 09:47:23;;;;;;;5.65;3.88;;;;;;;23.91;nan;95345.47;5046577;28;20660;-62
2023/09/28 09:50:10;;;;;;;9.23;3.35;;;;;;;23.55;nan;95340.66;5045839;28;21567;-64
2023/09/28 09:55:21;;;;;;;6.90;3.20;;;;;;;24.15;nan;95331.44;5046268;28;20202;-64
2023/09/28 09:57:48;;;;;;;13.13;3.30;;;;;;;24.81;nan;95329.31;5045845;28;21152;-65
2023/09/28 10:00:19;;;;;;;5.18;3.28;;;;;;;24.94;nan;95335.94;5045772;28;20226;-63
2023/09/28 10:03:05;;;;;;;4.00;2.88;;;;;;;24.97;nan;95343.53;5045808;28;20210;-62
2023/09/28 10:05:51;;;;;;;7.18;3.30;;;;;;;24.93;nan;95349.06;5045767;28;20372;-64
2023/09/28 10:08:19;;;;;;;8.95;3.55;;;;;;;24.42;nan;95342.97;5046467;28;20207;-65
2023/09/28 10:10:47;;;;;;;15.45;4.47;;;;;;;24.23;nan;95337.66;5044890;28;20206;-61
2023/09/28 10:13:14;;;;;;;7.60;4.20;;;;;;;24.06;nan;95335.59;5046441;28;20249;-62
2023/09/28 10:15:45;;;;;;;13.35;3.83;;;;;;;23.85;nan;95332.16;5045432;28;20199;-63
2023/09/28 10:18:14;;;;;;;7.25;3.55;;;;;;;23.82;nan;95346.22;5046039;28;20199;-63
2023/09/28 10:20:41;;;;;;;7.82;3.55;;;;;;;23.80;nan;95339.50;5045646;28;20305;-64
2023/09/28 10:23:17;;;;;;;6.90;4.13;;;;;;;23.72;nan;95338.38;5028460;28;20195;-65
2023/09/28 10:25:55;;;;;;;13.02;5.22;;;;;;;23.96;nan;95334.72;5044784;28;20264;-63
2023/09/28 10:28:21;;;;;;;10.02;3.67;;;;;;;24.28;nan;95330.28;5045287;28;20254;-62
2023/09/28 10:34:19;;;;;;;9.30;3.40;;;;;;;24.51;nan;95330.97;5045847;28;20252;-64
2023/09/28 10:37:23;;;;;;;9.15;3.55;;;;;;;24.83;nan;95327.41;5044131;28;20213;-63
2023/09/28 10:39:52;;;;;;;4.40;3.40;;;;;;;24.92;nan;95329.22;5044868;28;20290;-63
2023/09/28 10:42:19;;;;;;;9.98;3.03;;;;;;;24.90;nan;95316.38;5045795;28;20238;-63
2023/09/28 10:44:47;;;;;;;14.10;3.67;;;;;;;25.02;nan;95324.91;5044163;28;20244;-62
2023/09/28 10:47:15;;;;;;;6.78;3.58;;;;;;;25.30;nan;95318.13;5044708;28;20199;-61
2023/09/28 10:49:41;;;;;;;5.85;3.22;;;;;;;25.39;nan;95322.53;5045534;28;20222;-61
2023/09/28 10:52:10;;;;;;;10.30;3.70;;;;;;;25.08;nan;95313.97;5046089;28;20226;-65
2023/09/28 10:54:37;;;;;;;11.15;3.45;;;;;;;25.19;nan;95313.88;5043643;28;20695;-65
2023/09/28 10:57:04;;;;;;;11.32;3.75;;;;;;;25.20;nan;95312.91;5045143;28;20288;-65
2023/09/28 10:59:30;;;;;;;7.50;3.33;;;;;;;25.41;nan;95307.59;5044126;28;20198;-64
2023/09/28 11:01:57;;;;;;;3.65;3.45;;;;;;;25.80;nan;95302.41;5044948;28;20222;-67
2023/09/28 11:04:25;;;;;;;6.72;2.95;;;;;;;26.27;nan;95301.53;5043947;28;20199;-65
2023/09/28 11:06:52;;;;;;;7.35;3.38;;;;;;;26.22;nan;95305.53;5045213;28;20234;-65
2023/09/28 11:09:37;;;;;;;7.35;3.60;;;;;;;26.12;nan;95302.94;5045111;28;20269;-64
2023/09/28 11:12:08;;;;;;;6.90;2.90;;;;;;;25.87;nan;95301.75;5042000;28;20741;-63
2023/09/28 11:14:36;;;;;;;10.95;3.42;;;;;;;25.75;nan;95295.84;5043476;28;20207;-63
2023/09/28 11:17:21;;;;;;;6.75;3.75;;;;;;;25.74;nan;95303.78;5043193;28;20220;-64
2023/09/28 11:19:49;;;;;;;12.05;3.78;;;;;;;25.71;nan;95301.47;5043585;28;20207;-66
2023/09/28 11:22:16;;;;;;;5.85;3.72;;;;;;;25.83;nan;95312.56;5042282;28;20223;-63
2023/09/28 11:25:02;;;;;;;8.70;3.40;;;;;;;26.14;nan;95303.63;5043326;28;20265;-64
2023/09/28 11:27:29;;;;;;;5.13;3.33;;;;;;;26.67;nan;95300.47;5042778;28;20227;-62
2023/09/28 11:30:14;;;;;;;5.78;2.80;;;;;;;26.64;nan;95296.38;5042246;28;20286;-63
2023/09/28 11:32:50;;;;;;;8.02;3.83;;;;;;;26.30;nan;95297.84;5043792;28;20195;-65
2023/09/28 11:35:24;;;;;;;6.60;3.33;;;;;;;26.00;nan;95291.03;5044325;28;20566;-68
2023/09/28 11:37:51;;;;;;;4.72;3.10;;;;;;;26.12;nan;95296.91;5044656;28;20214;-64
2023/09/28 11:40:19;;;;;;;8.18;3.47;;;;;;;26.30;nan;95288.25;5045119;28;20269;-65
2023/09/28 11:42:48;;;;;;;9.43;3.53;;;;;;;26.37;nan;95291.94;5044169;28;20227;-61
2023/09/28 11:45:17;;;;;;;4.45;2.85;;;;;;;26.31;nan;95284.69;5044692;28;20256;-67
2023/09/28 11:50:33;;;;;;;7.22;3.67;;;;;;;25.97;nan;95286.94;5044307;28;20206;-61
2023/09/28 11:53:18;;;;;;;6.78;3.00;;;;;;;25.72;nan;95287.50;5044191;28;20642;-62
2023/09/28 11:55:45;;;;;;;7.13;3.40;;;;;;;25.41;nan;95294.59;5044241;28;20248;-63
2023/09/28 11:58:12;;;;;;;8.00;4.05;;;;;;;25.48;nan;95285.28;5045049;28;20256;-63
2023/09/28 12:00:39;;;;;;;5.10;3.25;;;;;;;25.16;nan;95292.50;5044305;28;20203;-65
2023/09/28 12:03:06;;;;;;;4.85;2.95;;;;;;;25.33;nan;95290.06;5044280;28;20750;-64
2023/09/28 12:08:19;;;;;;;4.82;2.90;;;;;;;25.76;nan;95300.09;5048397;28;20210;-65
2023/09/28 12:10:45;;;;;;;3.95;3.08;;;;;;;25.60;nan;95289.38;5048214;28;20210;-64
2023/09/28 12:13:12;;;;;;;7.95;2.92;;;;;;;25.30;nan;95292.09;5048534;28;20226;-64
2023/09/28 12:15:58;;;;;;;5.55;2.70;;;;;;;25.22;nan;95284.16;5047869;28;20200;-63
2023/09/28 12:18:43;;;;;;;14.27;3.92;;;;;;;25.21;nan;95283.34;5047708;28;20657;-64
2023/09/28 12:21:11;;;;;;;7.90;3.58;;;;;;;25.20;nan;95286.09;5048334;28;20644;-64
2023/09/28 12:23:38;;;;;;;10.07;3.00;;;;;;;25.25;nan;95294.28;5047727;28;20736;-63
2023/09/28 12:26:05;;;;;;;7.38;3.35;;;;;;;25.29;nan;95277.44;5048435;28;20248;-63
2023/09/28 12:28:33;;;;;;;10.27;3.75;;;;;;;25.46;nan;95271.59;5047206;28;20234;-62
2023/09/28 12:34:02;;;;;;;5.35;3.00;;;;;;;24.96;nan;95284.66;5047007;28;20253;-63
2023/09/28 12:36:31;;;;;;;6.68;2.97;;;;;;;24.90;nan;95284.34;5048095;28;20195;-62
2023/09/28 12:38:57;;;;;;;6.53;3.78;;;;;;;24.86;nan;95283.78;5047632;28;20203;-64
2023/09/28 12:41:24;;;;;;;14.60;3.70;;;;;;;24.51;nan;95283.38;5047478;28;20219;-64
2023/09/28 12:43:51;;;;;;;8.23;3.10;;;;;;;24.60;nan;95288.63;5047472;28;20211;-63
2023/09/28 12:46:18;;;;;;;5.70;3.20;;;;;;;24.66;nan;95280.31;5047599;28;20211;-63
2023/09/28 12:48:45;;;;;;;6.28;3.80;;;;;;;24.68;nan;95287.97;5047933;28;20207;-63
2023/09/28 12:51:12;;;;;;;3.88;3.50;;;;;;;24.58;nan;95277.53;5047710;28;20283;-64